Weather at Kumejima Airport

Public forecast

Using degrees Celsius for public forecast. Weather courtesy of forecast.io.

Closest aviation weather report (METAR) to Kumejima Airport

Closest report is Naha Airport / JASDF Naha Air Base, 51.2 nm (94.8 km) E.

2024/05/24 13:30 (retrieved 35 minutes ago)

ROAH 241330Z 12004KT 9999 FEW005 BKN230 24/24 Q1012 RMK 1ST005 7AC230 A2991

Closest aviation forecast (TAF) to Kumejima Airport

Closest forecast is Naha Airport / JASDF Naha Air Base, 51.2 nm (94.8 km) E.

2024/05/24 12:31 (retrieved 2 hours ago)

TAF ROAH 241106Z 2412/2518 17004KT 9999 FEW008 BKN015 BECMG 2417/2419 04005KT TEMPO 2418/2506 FEW006 BKN008 BECMG 2503/2506 11006KT TEMPO 2506/2509 4000 SHRA FEW006 BKN008 FEW020CB TEMPO 2509/2518 FEW006 BKN008